Achtergracht — PCCL — position and weather

sailwx.info

Track history (hours):
 
Tides and Currents Weather Stations Pressure Air Temp Water Temp Dewpoint Dewpoint Depression Visibility Wind Speed Wind Dir Waves Ship Positions

Achtergracht

Last reported at 2015-Jul-07 12:08 UTC. Time now 2015-Jul-07 15:27 UTC.
Position N 35°59' W 012°29'.

Length 130 m; beam 19 m; draft 9 m.

Type: Cargo ship. MMSI: 244601000.

Date/timePositionNaut miles runAvg speedWind from/ knotsBaromVisibWave heightAir tempDewpointWater temp
2015-Jul-07 12:08N 35°59' W 012°29'533.5
2015-Jul-07 12:00N 36°00' W 012°24'716.2 350 / 161021.410.8 1.021.0
2015-Jul-07 11:33N 36°07' W 012°27'1514.5
2015-Jul-07 10:32N 36°21' W 012°22'1514.1
2015-Jul-07 09:27N 36°36' W 012°18'1313.9
2015-Jul-07 08:29N 36°49' W 012°14'1314.0
2015-Jul-07 07:33N 37°02' W 012°09'1414.2
2015-Jul-07 06:32N 37°15' W 012°04'916.8
2015-Jul-07 06:00N 37°24' W 012°00'511.2 010 / 101019.510.8 19.116.6
2015-Jul-07 05:33N 37°29' W 011°59'1413.7
2015-Jul-07 04:32N 37°42' W 011°55'1913.7
2015-Jul-07 03:08N 38°01' W 011°49'814.0
2015-Jul-07 02:33N 38°09' W 011°46'1414.3
2015-Jul-07 01:33N 38°23' W 011°42'1414.2
2015-Jul-07 00:33N 38°36' W 011°37'1322.8
2015-Jul-07 00:00N 38°48' W 011°30'3 5.8 310 / 51021.610.8 18.0
2015-Jul-06 23:33N 38°50' W 011°32'1414.2
2015-Jul-06 22:33N 39°04' W 011°27'1414.3
2015-Jul-06 21:34N 39°17' W 011°23'1414.3
2015-Jul-06 20:33N 39°31' W 011°18'1514.3
2015-Jul-06 19:32N 39°45' W 011°13'1414.5
2015-Jul-06 18:33N 39°59' W 011°08'1414.4
2015-Jul-06 17:33N 40°13' W 011°03'1413.9
2015-Jul-06 16:33N 40°26' W 010°59'6614.4
2015-Jul-06 12:00N 41°30' W 010°36'3 7.0 320 / 81020.910.8 17.9
2015-Jul-06 11:32N 41°33' W 010°35'3013.7
2015-Jul-06 09:21N 42°02' W 010°25'5213.6
2015-Jul-06 05:33N 42°52' W 010°06'7313.1
2015-Jul-06 00:00N 44°00' W 009°30'15813.1 999 / 41023.410.8 15.8
2015-Jul-05 12:00N 46°18' W 007°42'14912.4 250 / 131021.510.8 0.517.4
2015-Jul-05 00:00N 48°30' W 006°00'14512.0 210 / 101020.1 5.4 0.516.5
2015-Jul-04 12:00N 49°54' W 003°00'7 9.0 230 / 81020.910.8 0.516.5
2015-Jul-04 11:11N 49°60' W 002°53'5411.1
2015-Jul-04 06:20N 50°15' W 001°33'1114.3
2015-Jul-04 05:33N 50°18' W 001°16'1616.0
2015-Jul-04 04:32N 50°22' W 000°51'1716.2
2015-Jul-04 03:30N 50°27' W 000°26'1415.3
2015-Jul-04 02:33N 50°31' W 000°04'1514.7
2015-Jul-04 01:34N 50°36' E 000°18'1413.6
2015-Jul-04 00:33N 50°40' E 000°38'711.8
2015-Jul-04 00:00N 50°42' E 000°48'716.3 240 / 61014.6 5.4 0.515.9
2015-Jul-03 23:33N 50°48' E 000°55'1313.0
2015-Jul-03 22:33N 50°56' E 001°11'1514.9
2015-Jul-03 21:33N 51°05' E 001°30'1717.0
2015-Jul-03 20:33N 51°16' E 001°49'1616.0
2015-Jul-03 19:33N 51°31' E 002°01'1514.7
2015-Jul-03 18:33N 51°42' E 002°17'1413.7
2015-Jul-03 17:33N 51°52' E 002°32'1312.9
2015-Jul-03 16:33N 52°01' E 002°46'1212.4
2015-Jul-03 15:33N 52°11' E 002°59'4413.2
2015-Jul-03 12:16N 52°46' E 003°41'517.3
2015-Jul-03 12:00N 52°48' E 003°48'715.3 999 / 41026.7 5.4 16.3
2015-Jul-03 11:33N 52°54' E 003°51'1515.0
2015-Jul-03 10:33N 53°04' E 004°10'1413.9
2015-Jul-03 09:33N 53°14' E 004°26'1414.3
2015-Jul-03 08:33N 53°28' E 004°34'1413.6
2015-Jul-03 07:33N 53°40' E 004°42'1413.5
2015-Jul-03 06:32N 53°53' E 004°50'1313.5
2015-Jul-03 05:33N 54°05' E 004°59'1313.2
2015-Jul-03 04:33N 54°14' E 005°16'6314.1
2015-Jul-03 00:04N 54°50' E 006°46'685.8
2015-Jul-03 00:00N 54°54' E 006°54'2 3.7 020 / 101023.6 2.2 0.516.8
2015-Jul-02 23:31N 54°54' E 006°57'1313.2
2015-Jul-02 22:33N 55°01' E 007°16'1413.7
2015-Jul-02 21:33N 55°09' E 007°35'1313.2
2015-Jul-02 20:33N 55°17' E 007°53'1312.8
2015-Jul-02 19:33N 55°25' E 008°11'9 8.4
2015-Jul-02 18:32N 55°27' E 008°26'2 1.6
2015-Jul-02 17:30N 55°27' E 008°29'0 0.0
2015-Jul-02 16:30N 55°27' E 008°29'0 0.0
2015-Jul-02 15:30N 55°27' E 008°29'0 0.0
2015-Jul-02 14:27N 55°27' E 008°29'0 0.0
2015-Jul-02 13:12N 55°27' E 008°29'0 0.0
2015-Jul-02 12:33N 55°27' E 008°29'0 0.0
2015-Jul-02 11:33N 55°27' E 008°29'0 0.0
2015-Jul-02 10:29N 55°27' E 008°29'0 0.0
2015-Jul-02 09:20N 55°27' E 008°29'0 0.0
2015-Jul-02 08:29N 55°27' E 008°29'0 0.0
2015-Jul-02 07:32N 55°27' E 008°29'0 0.0
2015-Jul-02 06:30N 55°27' E 008°29'0 0.0
2015-Jul-02 03:06N 55°27' E 008°29'0 0.0
2015-Jul-02 02:32N 55°27' E 008°29'0 0.0
2015-Jul-01 23:22N 55°27' E 008°29'0 0.0
2015-Jul-01 20:26N 55°27' E 008°29'0 0.0
2015-Jul-01 19:26N 55°27' E 008°29'0 0.0
2015-Jul-01 17:26N 55°27' E 008°29'0 0.0
2015-Jul-01 16:23N 55°27' E 008°29'0 0.0
2015-Jul-01 15:29N 55°27' E 008°29'0 0.0
2015-Jul-01 14:29N 55°27' E 008°29'0 0.0
2015-Jul-01 13:26N 55°27' E 008°29'0 0.0
2015-Jul-01 12:26N 55°27' E 008°29'0 0.0
2015-Jul-01 11:17N 55°27' E 008°29'0 0.0
2015-Jul-01 10:17N 55°27' E 008°29'0 0.0
2015-Jul-01 09:32N 55°27' E 008°29'0 0.0
2015-Jul-01 08:32N 55°27' E 008°29'0 0.0
2015-Jul-01 07:17N 55°27' E 008°29'0 0.0
2015-Jul-01 06:17N 55°27' E 008°29'0 0.0
2015-Jul-01 05:29N 55°27' E 008°29'0 0.0
2015-Jul-01 04:32N 55°27' E 008°29'0 0.0
2015-Jul-01 03:29N 55°27' E 008°29'0 0.0
2015-Jul-01 02:32N 55°27' E 008°29'0 0.0
2015-Jul-01 01:32N 55°27' E 008°29'0 0.0
2015-Jul-01 00:32N 55°27' E 008°29'0 0.0
2015-Jun-30 23:23N 55°27' E 008°29'0 0.0
2015-Jun-30 22:32N 55°27' E 008°29'0 0.0
2015-Jun-30 21:32N 55°27' E 008°29'6 5.7
2015-Jun-30 20:33N 55°27' E 008°19'1313.1
2015-Jun-30 19:33N 55°19' E 008°00'1313.3
2015-Jun-30 18:33N 55°11' E 007°42'1312.9
2015-Jun-30 17:33N 55°00' E 007°30'1413.9
2015-Jun-30 16:33N 54°47' E 007°29'1414.1
2015-Jun-30 15:33N 54°32' E 007°28'1110.2
2015-Jun-30 14:29N 54°21' E 007°29'1213.1
2015-Jun-30 13:32N 54°10' E 007°39'1514.9
2015-Jun-30 12:32N 54°02' E 007°60'1514.9
2015-Jun-30 11:33N 53°59' E 008°24'1312.7
2015-Jun-30 10:34N 53°53' E 008°43'1110.9
2015-Jun-30 09:33N 53°51' E 009°01'10 9.8
2015-Jun-30 08:33N 53°52' E 009°18'1313.2
2015-Jun-30 07:33N 53°41' E 009°30'1312.5
2015-Jun-30 06:33N 53°33' E 009°47'7 5.6
2015-Jun-30 05:14N 53°32' E 009°59'0 0.0
2015-Jun-30 02:28N 53°32' E 009°59'0 0.0
2015-Jun-30 01:31N 53°32' E 009°59'0 0.0
2015-Jun-30 00:31N 53°32' E 009°59'0 0.0
2015-Jun-29 23:30N 53°32' E 009°59'0 0.0
2015-Jun-29 22:21N 53°32' E 009°59'0 0.0
2015-Jun-29 21:24N 53°32' E 009°59'0 0.0
2015-Jun-29 20:24N 53°32' E 009°59'0 0.0
2015-Jun-29 19:31N 53°32' E 009°59'0 0.0
2015-Jun-29 18:30N 53°32' E 009°59'0 0.0
2015-Jun-29 17:30N 53°32' E 009°59'0 0.0
2015-Jun-29 16:30N 53°32' E 009°59'0 0.0
2015-Jun-29 15:30N 53°32' E 009°59'0 0.0
2015-Jun-29 14:33N 53°32' E 009°59'0 0.0
2015-Jun-29 13:24N 53°32' E 009°59'0 0.0
2015-Jun-29 12:18N 53°32' E 009°59'0 0.0
2015-Jun-29 11:30N 53°32' E 009°59'0 0.0
2015-Jun-29 10:33N 53°32' E 009°59'1 0.6
2015-Jun-29 09:33N 53°33' E 009°59'10 9.7
2015-Jun-29 08:32N 53°34' E 009°42'1313.0
2015-Jun-29 07:33N 53°43' E 009°28'1413.7
2015-Jun-29 06:33N 53°53' E 009°11'1313.0
2015-Jun-29 05:33N 53°50' E 008°49'1211.9
2015-Jun-29 04:33N 53°58' E 008°33'1313.5
2015-Jun-29 03:33N 53°60' E 008°11'1414.1
2015-Jun-29 02:33N 53°57' E 007°47'1913.6
2015-Jun-29 01:09N 53°53' E 007°15'813.3
2015-Jun-29 00:33N 53°51' E 007°02'1222.4
2015-Jun-29 00:00N 53°48' E 006°42'1 2.3 999 / 31018.9 5.4 15.5
2015-Jun-28 23:33N 53°48' E 006°40'1313.2
2015-Jun-28 22:33N 53°45' E 006°19'1313.4
2015-Jun-28 21:33N 53°41' E 005°57'1413.6
2015-Jun-28 20:33N 53°36' E 005°36'1413.7
2015-Jun-28 19:33N 53°31' E 005°14'1414.3
2015-Jun-28 18:33N 53°27' E 004°51'1313.5
2015-Jun-28 17:33N 53°17' E 004°36'1414.4
2015-Jun-28 16:33N 53°04' E 004°25'1514.9
2015-Jun-28 15:33N 52°51' E 004°14'1515.2
2015-Jun-28 14:33N 52°39' E 003°57'1514.8
2015-Jun-28 13:33N 52°27' E 003°43'1515.1
2015-Jun-28 12:33N 52°14' E 003°32'1515.2
2015-Jun-28 11:33N 51°59' E 003°24'1515.2
2015-Jun-28 10:33N 51°46' E 003°13'1313.2
2015-Jun-28 09:33N 51°35' E 003°24'1111.1
2015-Jun-28 08:33N 51°26' E 003°36'9 8.8
2015-Jun-28 07:33N 51°21' E 003°48'10 9.7
2015-Jun-28 06:33N 51°25' E 004°02'1010.3
2015-Jun-28 05:33N 51°20' E 004°16'4 3.8
2015-Jun-28 04:33N 51°16' E 004°17'2 1.6
2015-Jun-28 03:31N 51°15' E 004°14'0 0.0
2015-Jun-28 02:31N 51°15' E 004°14'0 0.0
2015-Jun-28 01:31N 51°15' E 004°14'0 0.0
2015-Jun-28 00:31N 51°15' E 004°14'0 0.0
2015-Jun-27 23:28N 51°15' E 004°14'0 0.0
2015-Jun-27 22:31N 51°15' E 004°14'0 0.0
2015-Jun-27 21:31N 51°15' E 004°14'0 0.0
2015-Jun-27 20:31N 51°15' E 004°14'0 0.0
2015-Jun-27 19:28N 51°15' E 004°14'0 0.0
2015-Jun-27 18:28N 51°15' E 004°14'0 0.0
2015-Jun-27 17:31N 51°15' E 004°14'0 0.0
2015-Jun-27 16:28N 51°15' E 004°14'0 0.0
2015-Jun-27 15:31N 51°15' E 004°14'0 0.0
2015-Jun-27 14:31N 51°15' E 004°14'0 0.0
2015-Jun-27 13:31N 51°15' E 004°14'0 0.0
2015-Jun-27 12:34N 51°15' E 004°14'  
Track history (hours):
 
Tides and Currents Weather Stations Pressure Air Temp Water Temp Dewpoint Dewpoint Depression Visibility Wind Speed Wind Dir Waves Ship Positions

Achtergracht

Last reported at 2015-Jul-07 12:08 UTC. Time now 2015-Jul-07 15:27 UTC.
Position N 35°59' W 012°29'.

Length 130 m; beam 19 m; draft 9 m.

Type: Cargo ship. MMSI: 244601000.

Date/timePositionNaut miles runAvg speedWind from/ knotsBaromVisibWave heightAir tempDewpointWater temp
2015-Jul-07 12:08N 35°59' W 012°29'533.5
2015-Jul-07 12:00N 36°00' W 012°24'716.2 350 / 161021.410.8 1.021.0
2015-Jul-07 11:33N 36°07' W 012°27'1514.5
2015-Jul-07 10:32N 36°21' W 012°22'1514.1
2015-Jul-07 09:27N 36°36' W 012°18'1313.9
2015-Jul-07 08:29N 36°49' W 012°14'1314.0
2015-Jul-07 07:33N 37°02' W 012°09'1414.2
2015-Jul-07 06:32N 37°15' W 012°04'916.8
2015-Jul-07 06:00N 37°24' W 012°00'511.2 010 / 101019.510.8 19.116.6
2015-Jul-07 05:33N 37°29' W 011°59'1413.7
2015-Jul-07 04:32N 37°42' W 011°55'1913.7
2015-Jul-07 03:08N 38°01' W 011°49'814.0
2015-Jul-07 02:33N 38°09' W 011°46'1414.3
2015-Jul-07 01:33N 38°23' W 011°42'1414.2
2015-Jul-07 00:33N 38°36' W 011°37'1322.8
2015-Jul-07 00:00N 38°48' W 011°30'3 5.8 310 / 51021.610.8 18.0
2015-Jul-06 23:33N 38°50' W 011°32'1414.2
2015-Jul-06 22:33N 39°04' W 011°27'1414.3
2015-Jul-06 21:34N 39°17' W 011°23'1414.3
2015-Jul-06 20:33N 39°31' W 011°18'1514.3
2015-Jul-06 19:32N 39°45' W 011°13'1414.5
2015-Jul-06 18:33N 39°59' W 011°08'1414.4
2015-Jul-06 17:33N 40°13' W 011°03'1413.9
2015-Jul-06 16:33N 40°26' W 010°59'6614.4
2015-Jul-06 12:00N 41°30' W 010°36'3 7.0 320 / 81020.910.8 17.9
2015-Jul-06 11:32N 41°33' W 010°35'3013.7
2015-Jul-06 09:21N 42°02' W 010°25'5213.6
2015-Jul-06 05:33N 42°52' W 010°06'7313.1
2015-Jul-06 00:00N 44°00' W 009°30'15813.1 999 / 41023.410.8 15.8
2015-Jul-05 12:00N 46°18' W 007°42'14912.4 250 / 131021.510.8 0.517.4
2015-Jul-05 00:00N 48°30' W 006°00'14512.0 210 / 101020.1 5.4 0.516.5
2015-Jul-04 12:00N 49°54' W 003°00'7 9.0 230 / 81020.910.8 0.516.5
2015-Jul-04 11:11N 49°60' W 002°53'5411.1
2015-Jul-04 06:20N 50°15' W 001°33'1114.3
2015-Jul-04 05:33N 50°18' W 001°16'1616.0
2015-Jul-04 04:32N 50°22' W 000°51'1716.2
2015-Jul-04 03:30N 50°27' W 000°26'1415.3
2015-Jul-04 02:33N 50°31' W 000°04'1514.7
2015-Jul-04 01:34N 50°36' E 000°18'1413.6
2015-Jul-04 00:33N 50°40' E 000°38'711.8
2015-Jul-04 00:00N 50°42' E 000°48'716.3 240 / 61014.6 5.4 0.515.9
2015-Jul-03 23:33N 50°48' E 000°55'1313.0
2015-Jul-03 22:33N 50°56' E 001°11'1514.9
2015-Jul-03 21:33N 51°05' E 001°30'1717.0
2015-Jul-03 20:33N 51°16' E 001°49'1616.0
2015-Jul-03 19:33N 51°31' E 002°01'1514.7
2015-Jul-03 18:33N 51°42' E 002°17'1413.7
2015-Jul-03 17:33N 51°52' E 002°32'1312.9
2015-Jul-03 16:33N 52°01' E 002°46'1212.4
2015-Jul-03 15:33N 52°11' E 002°59'4413.2
2015-Jul-03 12:16N 52°46' E 003°41'517.3
2015-Jul-03 12:00N 52°48' E 003°48'715.3 999 / 41026.7 5.4 16.3
2015-Jul-03 11:33N 52°54' E 003°51'1515.0
2015-Jul-03 10:33N 53°04' E 004°10'1413.9
2015-Jul-03 09:33N 53°14' E 004°26'1414.3
2015-Jul-03 08:33N 53°28' E 004°34'1413.6
2015-Jul-03 07:33N 53°40' E 004°42'1413.5
2015-Jul-03 06:32N 53°53' E 004°50'1313.5
2015-Jul-03 05:33N 54°05' E 004°59'1313.2
2015-Jul-03 04:33N 54°14' E 005°16'6314.1
2015-Jul-03 00:04N 54°50' E 006°46'685.8
2015-Jul-03 00:00N 54°54' E 006°54'2 3.7 020 / 101023.6 2.2 0.516.8
2015-Jul-02 23:31N 54°54' E 006°57'1313.2
2015-Jul-02 22:33N 55°01' E 007°16'1413.7
2015-Jul-02 21:33N 55°09' E 007°35'1313.2
2015-Jul-02 20:33N 55°17' E 007°53'1312.8
2015-Jul-02 19:33N 55°25' E 008°11'9 8.4
2015-Jul-02 18:32N 55°27' E 008°26'2 1.6
2015-Jul-02 17:30N 55°27' E 008°29'0 0.0
2015-Jul-02 16:30N 55°27' E 008°29'0 0.0
2015-Jul-02 15:30N 55°27' E 008°29'0 0.0
2015-Jul-02 14:27N 55°27' E 008°29'0 0.0
2015-Jul-02 13:12N 55°27' E 008°29'0 0.0
2015-Jul-02 12:33N 55°27' E 008°29'0 0.0
2015-Jul-02 11:33N 55°27' E 008°29'0 0.0
2015-Jul-02 10:29N 55°27' E 008°29'0 0.0
2015-Jul-02 09:20N 55°27' E 008°29'0 0.0
2015-Jul-02 08:29N 55°27' E 008°29'0 0.0
2015-Jul-02 07:32N 55°27' E 008°29'0 0.0
2015-Jul-02 06:30N 55°27' E 008°29'0 0.0
2015-Jul-02 03:06N 55°27' E 008°29'0 0.0
2015-Jul-02 02:32N 55°27' E 008°29'0 0.0
2015-Jul-01 23:22N 55°27' E 008°29'0 0.0
2015-Jul-01 20:26N 55°27' E 008°29'0 0.0
2015-Jul-01 19:26N 55°27' E 008°29'0 0.0
2015-Jul-01 17:26N 55°27' E 008°29'0 0.0
2015-Jul-01 16:23N 55°27' E 008°29'0 0.0
2015-Jul-01 15:29N 55°27' E 008°29'0 0.0
2015-Jul-01 14:29N 55°27' E 008°29'0 0.0
2015-Jul-01 13:26N 55°27' E 008°29'0 0.0
2015-Jul-01 12:26N 55°27' E 008°29'0 0.0
2015-Jul-01 11:17N 55°27' E 008°29'0 0.0
2015-Jul-01 10:17N 55°27' E 008°29'0 0.0
2015-Jul-01 09:32N 55°27' E 008°29'0 0.0
2015-Jul-01 08:32N 55°27' E 008°29'0 0.0
2015-Jul-01 07:17N 55°27' E 008°29'0 0.0
2015-Jul-01 06:17N 55°27' E 008°29'0 0.0
2015-Jul-01 05:29N 55°27' E 008°29'0 0.0
2015-Jul-01 04:32N 55°27' E 008°29'0 0.0
2015-Jul-01 03:29N 55°27' E 008°29'0 0.0
2015-Jul-01 02:32N 55°27' E 008°29'0 0.0
2015-Jul-01 01:32N 55°27' E 008°29'0 0.0
2015-Jul-01 00:32N 55°27' E 008°29'0 0.0
2015-Jun-30 23:23N 55°27' E 008°29'0 0.0
2015-Jun-30 22:32N 55°27' E 008°29'0 0.0
2015-Jun-30 21:32N 55°27' E 008°29'6 5.7
2015-Jun-30 20:33N 55°27' E 008°19'1313.1
2015-Jun-30 19:33N 55°19' E 008°00'1313.3
2015-Jun-30 18:33N 55°11' E 007°42'1312.9
2015-Jun-30 17:33N 55°00' E 007°30'1413.9
2015-Jun-30 16:33N 54°47' E 007°29'1414.1
2015-Jun-30 15:33N 54°32' E 007°28'1110.2
2015-Jun-30 14:29N 54°21' E 007°29'1213.1
2015-Jun-30 13:32N 54°10' E 007°39'1514.9
2015-Jun-30 12:32N 54°02' E 007°60'1514.9
2015-Jun-30 11:33N 53°59' E 008°24'1312.7
2015-Jun-30 10:34N 53°53' E 008°43'1110.9
2015-Jun-30 09:33N 53°51' E 009°01'10 9.8
2015-Jun-30 08:33N 53°52' E 009°18'1313.2
2015-Jun-30 07:33N 53°41' E 009°30'1312.5
2015-Jun-30 06:33N 53°33' E 009°47'7 5.6
2015-Jun-30 05:14N 53°32' E 009°59'0 0.0
2015-Jun-30 02:28N 53°32' E 009°59'0 0.0
2015-Jun-30 01:31N 53°32' E 009°59'0 0.0
2015-Jun-30 00:31N 53°32' E 009°59'0 0.0
2015-Jun-29 23:30N 53°32' E 009°59'0 0.0
2015-Jun-29 22:21N 53°32' E 009°59'0 0.0
2015-Jun-29 21:24N 53°32' E 009°59'0 0.0
2015-Jun-29 20:24N 53°32' E 009°59'0 0.0
2015-Jun-29 19:31N 53°32' E 009°59'0 0.0
2015-Jun-29 18:30N 53°32' E 009°59'0 0.0
2015-Jun-29 17:30N 53°32' E 009°59'0 0.0
2015-Jun-29 16:30N 53°32' E 009°59'0 0.0
2015-Jun-29 15:30N 53°32' E 009°59'0 0.0
2015-Jun-29 14:33N 53°32' E 009°59'0 0.0
2015-Jun-29 13:24N 53°32' E 009°59'0 0.0
2015-Jun-29 12:18N 53°32' E 009°59'0 0.0
2015-Jun-29 11:30N 53°32' E 009°59'0 0.0
2015-Jun-29 10:33N 53°32' E 009°59'1 0.6
2015-Jun-29 09:33N 53°33' E 009°59'10 9.7
2015-Jun-29 08:32N 53°34' E 009°42'1313.0
2015-Jun-29 07:33N 53°43' E 009°28'1413.7
2015-Jun-29 06:33N 53°53' E 009°11'1313.0
2015-Jun-29 05:33N 53°50' E 008°49'1211.9
2015-Jun-29 04:33N 53°58' E 008°33'1313.5
2015-Jun-29 03:33N 53°60' E 008°11'1414.1
2015-Jun-29 02:33N 53°57' E 007°47'1913.6
2015-Jun-29 01:09N 53°53' E 007°15'813.3
2015-Jun-29 00:33N 53°51' E 007°02'1222.4
2015-Jun-29 00:00N 53°48' E 006°42'1 2.3 999 / 31018.9 5.4 15.5
2015-Jun-28 23:33N 53°48' E 006°40'1313.2
2015-Jun-28 22:33N 53°45' E 006°19'1313.4
2015-Jun-28 21:33N 53°41' E 005°57'1413.6
2015-Jun-28 20:33N 53°36' E 005°36'1413.7
2015-Jun-28 19:33N 53°31' E 005°14'1414.3
2015-Jun-28 18:33N 53°27' E 004°51'1313.5
2015-Jun-28 17:33N 53°17' E 004°36'1414.4
2015-Jun-28 16:33N 53°04' E 004°25'1514.9
2015-Jun-28 15:33N 52°51' E 004°14'1515.2
2015-Jun-28 14:33N 52°39' E 003°57'1514.8
2015-Jun-28 13:33N 52°27' E 003°43'1515.1
2015-Jun-28 12:33N 52°14' E 003°32'1515.2
2015-Jun-28 11:33N 51°59' E 003°24'1515.2
2015-Jun-28 10:33N 51°46' E 003°13'1313.2
2015-Jun-28 09:33N 51°35' E 003°24'1111.1
2015-Jun-28 08:33N 51°26' E 003°36'9 8.8
2015-Jun-28 07:33N 51°21' E 003°48'10 9.7
2015-Jun-28 06:33N 51°25' E 004°02'1010.3
2015-Jun-28 05:33N 51°20' E 004°16'4 3.8
2015-Jun-28 04:33N 51°16' E 004°17'2 1.6
2015-Jun-28 03:31N 51°15' E 004°14'0 0.0
2015-Jun-28 02:31N 51°15' E 004°14'0 0.0
2015-Jun-28 01:31N 51°15' E 004°14'0 0.0
2015-Jun-28 00:31N 51°15' E 004°14'0 0.0
2015-Jun-27 23:28N 51°15' E 004°14'0 0.0
2015-Jun-27 22:31N 51°15' E 004°14'0 0.0
2015-Jun-27 21:31N 51°15' E 004°14'0 0.0
2015-Jun-27 20:31N 51°15' E 004°14'0 0.0
2015-Jun-27 19:28N 51°15' E 004°14'0 0.0
2015-Jun-27 18:28N 51°15' E 004°14'0 0.0
2015-Jun-27 17:31N 51°15' E 004°14'0 0.0
2015-Jun-27 16:28N 51°15' E 004°14'0 0.0
2015-Jun-27 15:31N 51°15' E 004°14'0 0.0
2015-Jun-27 14:31N 51°15' E 004°14'0 0.0
2015-Jun-27 13:31N 51°15' E 004°14'0 0.0
2015-Jun-27 12:34N 51°15' E 004°14'  

Dump ship's entire track history